Dades meteomassalio
Diari Summary for Gener 22, 2017 Units:  Metric    English   Both
« Previous Day
Next Day »
Diari Semanal Mensual Anual Personalitzat
  Maxima: Minima: Mijana:
Temperatura: -17.8 °C -15.1 °C -14.3 °C
Rosada: -17.8 °C -16.8 °C -16.1 °C
Humitat: Humidity % 68 % 80 %
Velocitat del vent: 0 km/h 0 km/h 10 km/h
Racha vent: 0 km/h - -
Vent:- - WNW
Pressio: 0 hPa 34452.6 hPa -
Pluja: 58.42 mm    
Historical Graphs
 
 
Tabular Data for Gener 22, 2017
Time Temperature Dew Point Pressure Wind Wind Speed Wind Gust Humidity Rainfall Rate (Hourly) solar Conditions
-17.8 °C -17.8 °C 0 hPa Calm     Humidity % 0 mm SolarRadiationWatts/m^2 W/m2 Conditions
00:03 -14.2 °C -15.8 °C 34510.1 hPa Calm     81 % 0 mm 0.0 W/m2 CLR
00:08 -14.2 °C -15.8 °C 34510.1 hPa Calm     81 % 0 mm 0.0 W/m2 CLR
00:13 -14.2 °C -15.9 °C 34510.1 hPa Calm     81 % 0 mm 0.0 W/m2 CLR
00:18 -14.3 °C -15.9 °C 34510.1 hPa Calm     82 % 0 mm 0.0 W/m2 CLR
00:23 -14.4 °C -15.8 °C 34520.3 hPa Calm     84 % 0 mm 0.0 W/m2 CLR
00:28 -14.6 °C -15.9 °C 34520.3 hPa Calm     84 % 0 mm 0.0 W/m2 CLR
00:33 -14.6 °C -15.9 °C 34520.3 hPa Calm     85 % 0 mm 0.0 W/m2 CLR
00:38 -14.7 °C -15.9 °C 34520.3 hPa Calm     86 % 0 mm 0.0 W/m2 CLR
00:43 -14.7 °C -15.9 °C 34520.3 hPa Calm     86 % 0 mm 0.0 W/m2 CLR
00:48 -14.7 °C -15.9 °C 34510.1 hPa Calm     86 % 0 mm 0.0 W/m2 CLR
00:53 -14.6 °C -15.7 °C 34510.1 hPa Calm     86 % 0 mm 0.0 W/m2 CLR
00:58 -14.4 °C -15.7 °C 34496.6 hPa West 6 km/h 6 km/h 85 % 0 mm 0.0 W/m2 CLR
01:03 -14.4 °C -15.8 °C 34496.6 hPa Calm     84 % 0 mm 0.0 W/m2 CLR
01:08 -14.4 °C -15.7 °C 34496.6 hPa Calm     85 % 0 mm 0.0 W/m2 CLR
01:13 -14.4 °C -15.8 °C 34496.6 hPa Calm     84 % 0 mm 0.0 W/m2 CLR
01:18 -14.4 °C -15.8 °C 34496.6 hPa Calm     84 % 0 mm 0.0 W/m2 CLR
01:23 -14.4 °C -15.7 °C 34496.6 hPa Calm     85 % 0 mm 0.0 W/m2 CLR
01:28 -14.4 °C -15.7 °C 34486.4 hPa WNW 20.9 km/h 20.9 km/h 85 % 0 mm 0.0 W/m2 CLR
01:33 -14.2 °C -15.7 °C 34486.4 hPa WNW 28.5 km/h 28.5 km/h 83 % 0 mm 0.0 W/m2 CLR
01:38 -13.9 °C -15.7 °C 34486.4 hPa WNW 26.9 km/h 26.9 km/h 80 % 0 mm 0.0 W/m2 CLR
01:43 -13.8 °C -15.7 °C 34486.4 hPa West 33.6 km/h 33.6 km/h 79 % 0 mm 0.0 W/m2 CLR
01:48 -13.8 °C -15.7 °C 34486.4 hPa West 23.8 km/h 23.8 km/h 78 % 0 mm 0.0 W/m2 CLR
01:53 -13.8 °C -15.8 °C 34476.3 hPa West 26.9 km/h 26.9 km/h 78 % 0 mm 0.0 W/m2 CLR
01:58 -13.8 °C -15.8 °C 34476.3 hPa West 29.8 km/h 29.8 km/h 78 % 0 mm 0.0 W/m2 CLR
02:03 -13.9 °C -15.9 °C 34476.3 hPa West 26.9 km/h 26.9 km/h 78 % 0 mm 0.0 W/m2 CLR
02:08 -13.9 °C -16 °C 34476.3 hPa West 15 km/h 15 km/h 77 % 0 mm 0.0 W/m2 CLR
02:13 -13.9 °C -15.9 °C 34476.3 hPa WSW 10.3 km/h 10.3 km/h 78 % 0 mm 0.0 W/m2 CLR
02:18 -14.1 °C -15.9 °C 34486.4 hPa WSW 12.9 km/h 12.9 km/h 79 % 0 mm 0.0 W/m2 CLR
02:23 -14.1 °C -16 °C 34476.3 hPa WSW 11.9 km/h 11.9 km/h 79 % 0 mm 0.0 W/m2 CLR
02:28 -14.1 °C -15.9 °C 34476.3 hPa West 11.9 km/h 11.9 km/h 79 % 0 mm 0.0 W/m2 CLR
02:33 -14.1 °C -16 °C 34476.3 hPa West 26.9 km/h 26.9 km/h 78 % 0 mm 0.0 W/m2 CLR
02:38 -14 °C -16 °C 34476.3 hPa West 23.8 km/h 23.8 km/h 78 % 0 mm 0.0 W/m2 CLR
02:43 -14.1 °C -16 °C 34486.4 hPa Calm     78 % 0 mm 0.0 W/m2 CLR
02:48 -14.1 °C -16 °C 34476.3 hPa Calm     79 % 0 mm 0.0 W/m2 CLR
02:53 -14.2 °C -16 °C 34476.3 hPa SW 11.9 km/h 11.9 km/h 80 % 0 mm 0.0 W/m2 CLR
02:58 -14.3 °C -16.1 °C 34476.3 hPa West 15 km/h 15 km/h 80 % 0 mm 0.0 W/m2 CLR
03:03 -14.3 °C -16.2 °C 34486.4 hPa Calm     79 % 0 mm 0.0 W/m2 CLR
03:08 -14.3 °C -16.1 °C 34476.3 hPa Calm     80 % 0 mm 0.0 W/m2 CLR
03:13 -14.3 °C -16.1 °C 34476.3 hPa Calm     80 % 0 mm 0.0 W/m2 CLR
03:18 -14.3 °C -16.1 °C 34476.3 hPa Calm     80 % 0 mm 0.0 W/m2 CLR
03:23 -14.3 °C -16.1 °C 34476.3 hPa SW 2.6 km/h 2.6 km/h 80 % 0 mm 0.0 W/m2 CLR
03:28 -14.3 °C -16.2 °C 34476.3 hPa SW 12.9 km/h 12.9 km/h 80 % 0 mm 0.0 W/m2 CLR
03:33 -14.4 °C -16.2 °C 34476.3 hPa Calm     80 % 0 mm 0.0 W/m2 CLR
03:38 -14.4 °C -16.3 °C 34476.3 hPa Calm     79 % 0 mm 0.0 W/m2 CLR
03:43 -14.4 °C -16.3 °C 34476.3 hPa WSW 20.8 km/h 20.8 km/h 79 % 0 mm 0.0 W/m2 CLR
03:48 -14.4 °C -16.3 °C 34476.3 hPa WSW 23.8 km/h 23.8 km/h 78 % 0 mm 0.0 W/m2 CLR
03:53 -14.3 °C -16.5 °C 34462.7 hPa WSW 32.8 km/h 32.8 km/h 76 % 0 mm 0.0 W/m2 CLR
03:58 -14.3 °C -16.4 °C 34476.3 hPa WSW 32.8 km/h 32.8 km/h 76 % 0 mm 0.0 W/m2 CLR
04:03 -14.3 °C -16.6 °C 34476.3 hPa WSW 29.8 km/h 29.8 km/h 75 % 0 mm 0.0 W/m2 CLR
04:08 -14.2 °C -16.7 °C 34462.7 hPa West 44.7 km/h 44.7 km/h 73 % 0 mm 0.0 W/m2 CLR
04:13 -14.1 °C -16.6 °C 34462.7 hPa West 29.8 km/h 29.8 km/h 74 % 0 mm 0.0 W/m2 CLR
04:18 -14.2 °C -16.5 °C 34462.7 hPa West 41.7 km/h 41.7 km/h 75 % 7.62 mm 0.0 W/m2 RA
04:23 -14.2 °C -16.7 °C 34462.7 hPa WSW 44.7 km/h 44.7 km/h 73 % 7.62 mm 0.0 W/m2 CLR
04:28 -14.1 °C -16.7 °C 34462.7 hPa West 26.9 km/h 26.9 km/h 72 % 7.62 mm 0.0 W/m2 CLR
04:33 -14.1 °C -16.7 °C 34476.3 hPa West 26.9 km/h 26.9 km/h 72 % 7.62 mm 0.0 W/m2 CLR
04:38 -14.1 °C -16.7 °C 34476.3 hPa Calm     72 % 7.62 mm 0.0 W/m2 CLR
04:43 -14.1 °C -16.6 °C 34486.4 hPa Calm     73 % 7.62 mm 0.0 W/m2 CLR
04:48 -14.2 °C -16.5 °C 34486.4 hPa Calm     75 % 7.62 mm 0.0 W/m2 CLR
04:53 -14.3 °C -16.6 °C 34476.3 hPa Calm     75 % 7.62 mm 0.0 W/m2 CLR
04:58 -14.3 °C -16.6 °C 34476.3 hPa NNW 11.9 km/h 11.9 km/h 75 % 7.62 mm 0.0 W/m2 CLR
05:03 -14.4 °C -16.6 °C 34476.3 hPa WSW 11.9 km/h 11.9 km/h 76 % 7.62 mm 0.0 W/m2 CLR
05:08 -14.3 °C -16.6 °C 34476.3 hPa WSW 17.9 km/h 17.9 km/h 76 % 7.62 mm 0.0 W/m2 CLR
05:13 -14.4 °C -16.6 °C 34476.3 hPa Calm     76 % 7.62 mm 0.0 W/m2 CLR
05:18 -14.4 °C -16.4 °C 34476.3 hPa Calm     78 % 0 mm 0.0 W/m2 CLR
05:23 -14.5 °C -16.5 °C 34462.7 hPa Calm     78 % 0 mm 0.0 W/m2 CLR
05:28 -14.6 °C -16.4 °C 34462.7 hPa Calm     79 % 0 mm 0.0 W/m2 CLR
05:33 -14.6 °C -16.3 °C 34462.7 hPa Calm     80 % 7.62 mm 0.0 W/m2 RA
05:38 -14.6 °C -16.2 °C 34462.7 hPa Calm     82 % 7.62 mm 0.0 W/m2
05:43 -14.7 °C -16.3 °C 34462.7 hPa Calm     82 % 7.62 mm 0.0 W/m2 CLR
05:48 -14.7 °C -16.2 °C 34462.7 hPa Calm     83 % 7.62 mm 0.0 W/m2 CLR
05:53 -14.7 °C -16.1 °C 34462.7 hPa Calm     84 % 7.62 mm 0.0 W/m2 CLR
05:58 -14.8 °C -16.2 °C 34462.7 hPa Calm     84 % 7.62 mm 0.0 W/m2 CLR
06:03 -14.8 °C -16.2 °C 34476.3 hPa Calm     85 % 7.62 mm 0.0 W/m2 CLR
06:08 -14.8 °C -16.1 °C 34476.3 hPa Calm     86 % 7.62 mm 0.0 W/m2 CLR
06:13 -14.9 °C -16.1 °C 34476.3 hPa Calm     86 % 7.62 mm 0.0 W/m2 CLR
06:18 -14.9 °C -16 °C 34476.3 hPa Calm     87 % 7.62 mm 0.0 W/m2 CLR
06:23 -14.9 °C -16 °C 34476.3 hPa Calm     87 % 7.62 mm 0.0 W/m2 CLR
06:28 -14.9 °C -16 °C 34476.3 hPa Calm     87 % 7.62 mm 0.0 W/m2 CLR
06:33 -14.9 °C -16 °C 34476.3 hPa Calm     87 % 0 mm 0.0 W/m2 CLR
06:38 -14.9 °C -16 °C 34476.3 hPa Calm     87 % 0 mm 0.0 W/m2 CLR
06:43 -14.9 °C -16.1 °C 34476.3 hPa Calm     86 % 0 mm 0.0 W/m2 CLR
06:49 -14.9 °C -16.1 °C 34476.3 hPa Calm     86 % 0 mm 0.0 W/m2 CLR
06:54 -14.9 °C -16.2 °C 34476.3 hPa Calm     85 % 0 mm 0.0 W/m2 CLR
06:59 -14.9 °C -16.2 °C 34476.3 hPa SW 6 km/h   85 % 0 mm 0.0 W/m2 CLR
07:04 -14.9 °C -16.3 °C 34476.3 hPa Calm     84 % 0 mm 0.0 W/m2 CLR
07:09 -14.9 °C -16.4 °C 34476.3 hPa WSW 17.9 km/h 17.9 km/h 83 % 0 mm 0.0 W/m2 CLR
07:14 -14.9 °C -16.4 °C 34462.7 hPa West 20.8 km/h 20.8 km/h 82 % 0 mm 0.0 W/m2 CLR
07:19 -14.9 °C -16.4 °C 34462.7 hPa West 26.9 km/h 26.9 km/h 83 % 0 mm 0.0 W/m2 CLR
07:24 -14.9 °C -16.5 °C 34462.7 hPa WSW 20.9 km/h 20.9 km/h 82 % 0 mm 0.0 W/m2 CLR
07:29 -14.9 °C -16.4 °C 34462.7 hPa WSW 15 km/h 15 km/h 83 % 0 mm 0.0 W/m2 CLR
07:34 -14.9 °C -16.4 °C 34462.7 hPa SW 17.9 km/h 17.9 km/h 83 % 0 mm 0.0 W/m2 CLR
07:39 -14.9 °C -16.6 °C 34462.7 hPa WSW 23.8 km/h 23.8 km/h 81 % 0 mm 0.0 W/m2 CLR
07:44 -14.9 °C -16.6 °C 34476.3 hPa Calm     81 % 0 mm 0.0 W/m2 CLR
07:49 -14.9 °C -16.6 °C 34476.3 hPa Calm     81 % 0 mm 0.0 W/m2 CLR
07:54 -14.9 °C -16.5 °C 34476.3 hPa Calm     82 % 0 mm 0.0 W/m2 CLR
07:59 -15 °C -16.5 °C 34486.4 hPa Calm     83 % 0 mm 0.0 W/m2 CLR
08:04 -15.1 °C -16.6 °C 34486.4 hPa Calm     83 % 0 mm 0.0 W/m2 CLR
08:09 -15.1 °C -16.6 °C 34486.4 hPa Calm     82 % 0 mm 0.0 W/m2 CLR
08:14 -15 °C -16.7 °C 34486.4 hPa Calm     81 % 0 mm 0.0 W/m2 CLR
08:19 -15 °C -16.7 °C 34486.4 hPa Calm     81 % 0 mm 0.0 W/m2 OVC
08:24 -15 °C -16.8 °C 34486.4 hPa Calm     80 % 0 mm 0.0 W/m2 OVC
08:29 -14.9 °C -16.7 °C 34486.4 hPa Calm     80 % 0 mm 0.0 W/m2 OVC
08:34 -14.9 °C -16.7 °C 34486.4 hPa Calm     80 % 0 mm 0.0 W/m2 OVC
08:39 -14.9 °C -16.7 °C 34486.4 hPa Calm     80 % 0 mm 5.0 W/m2 OVC
08:44 -14.9 °C -16.8 °C 34486.4 hPa Calm     79 % 0 mm 14.0 W/m2 BKN
08:49 -14.9 °C -16.7 °C 34486.4 hPa Calm     79 % 0 mm 25.0 W/m2 BKN
08:54 -14.8 °C -16.7 °C 34486.4 hPa Calm     79 % 0 mm 40.0 W/m2 BKN
08:59 -14.8 °C -16.8 °C 34486.4 hPa West 3.1 km/h   78 % 0 mm 60.0 W/m2 BKN
09:04 -14.7 °C -16.8 °C 34486.4 hPa Calm     77 % 0 mm 69.0 W/m2 BKN
09:09 -14.7 °C -16.8 °C 34486.4 hPa Calm     77 % 0 mm 72.0 W/m2 BKN
09:14 -14.6 °C -16.8 °C 34486.4 hPa Calm     76 % 0 mm 76.0 W/m2 BKN
09:19 -14.6 °C -16.8 °C 34486.4 hPa Calm     76 % 0 mm 77.0 W/m2 BKN
09:24 -14.6 °C -16.7 °C 34486.4 hPa WNW 10.3 km/h 10.3 km/h 77 % 0 mm 81.0 W/m2 BKN
09:29 -14.6 °C -16.7 °C 34496.6 hPa WNW 11.9 km/h 11.9 km/h 76 % 0 mm 69.0 W/m2 BKN
09:34 -14.6 °C -16.7 °C 34496.6 hPa Calm     76 % 0 mm 42.0 W/m2 BKN
09:39 -14.5 °C -16.8 °C 34496.6 hPa Calm     75 % 0 mm 42.0 W/m2 BKN
09:44 -14.5 °C -16.8 °C 34496.6 hPa Calm     75 % 0 mm 53.0 W/m2 BKN
09:49 -14.5 °C -16.8 °C 34510.1 hPa Calm     75 % 0 mm 53.0 W/m2 BKN
09:54 -14.4 °C -16.7 °C 34510.1 hPa Calm     75 % 0 mm 49.0 W/m2 BKN
09:59 -14.4 °C -16.7 °C 34510.1 hPa Calm     75 % 0 mm 76.0 W/m2 BKN
10:04 -14.4 °C -16.7 °C 34510.1 hPa Calm     75 % 0 mm 70.0 W/m2 BKN
10:09 -14.4 °C -16.7 °C 34510.1 hPa Calm     75 % 0 mm 58.0 W/m2 BKN
10:14 -14.4 °C -16.7 °C 34510.1 hPa Calm     75 % 0 mm 93.0 W/m2 BKN
10:19 -14.4 °C -16.7 °C 34510.1 hPa Calm     75 % 0 mm 91.0 W/m2 BKN
10:24 -14.3 °C -16.6 °C 34510.1 hPa Calm     75 % 0 mm 111.0 W/m2 BKN
10:25 -14.3 °C -16.6 °C 34510.1 hPa Calm     75 % 0 mm 114.0 W/m2 BKN
10:30 -14.3 °C -16.6 °C 34510.1 hPa Calm     75 % 0 mm 165.0 W/m2 BKN
10:35 -14.2 °C -16.7 °C 34496.6 hPa West 9 km/h 9 km/h 73 % 0 mm 167.0 W/m2 BKN
10:40 -14.1 °C -16.7 °C 34496.6 hPa West 23.8 km/h 23.8 km/h 72 % 0 mm 158.0 W/m2 BKN
10:45 -14 °C -16.7 °C 34496.6 hPa West 28.5 km/h 28.5 km/h 71 % 0 mm 111.0 W/m2 BKN
10:50 -14 °C -16.7 °C 34496.6 hPa WNW 29.8 km/h 29.8 km/h 71 % 0 mm 137.0 W/m2 BKN
10:55 -14 °C -16.7 °C 34496.6 hPa WNW 26.9 km/h 26.9 km/h 71 % 0 mm 142.0 W/m2 BKN
11:00 -14 °C -16.8 °C 34496.6 hPa WNW 32.8 km/h 32.8 km/h 70 % 0 mm 195.0 W/m2 BKN
11:05 -14 °C -16.7 °C 34510.1 hPa WNW 26.9 km/h 26.9 km/h 71 % 0 mm 146.0 W/m2 BKN
11:10 -13.9 °C -16.7 °C 34510.1 hPa WNW 20.9 km/h 20.9 km/h 71 % 0 mm 139.0 W/m2 BKN
11:15 -13.9 °C -16.7 °C 34510.1 hPa WNW 35.7 km/h 35.7 km/h 71 % 0 mm 221.0 W/m2 BKN
11:20 -13.9 °C -16.7 °C 34510.1 hPa WNW 26.9 km/h 26.9 km/h 71 % 0 mm 202.0 W/m2 BKN
11:25 -13.9 °C -16.6 °C 34510.1 hPa WNW 26.9 km/h 26.9 km/h 71 % 0 mm 151.0 W/m2 BKN
11:30 -13.8 °C -16.5 °C 34510.1 hPa NW 17.9 km/h 17.9 km/h 72 % 0 mm 190.0 W/m2 BKN
11:35 -13.8 °C -16.7 °C 34510.1 hPa WNW 35.7 km/h 35.7 km/h 70 % 0 mm 207.0 W/m2 BKN
11:40 -13.8 °C -16.7 °C 34520.3 hPa WNW 26.9 km/h 26.9 km/h 70 % 0 mm 195.0 W/m2 BKN
11:45 -13.8 °C -16.7 °C 34520.3 hPa WNW 11.9 km/h 11.9 km/h 70 % 0 mm 211.0 W/m2 BKN
11:50 -13.8 °C -16.6 °C 34520.3 hPa WNW 23.8 km/h 23.8 km/h 70 % 0 mm 383.0 W/m2 BKN
11:55 -13.7 °C -16.6 °C 34520.3 hPa NW 29.8 km/h 29.8 km/h 70 % 0 mm 209.0 W/m2 SCT
12:00 -13.7 °C -16.6 °C 34520.3 hPa NW 26.9 km/h 26.9 km/h 70 % 0 mm 178.0 W/m2 BKN
12:05 -13.7 °C -16.6 °C 34520.3 hPa NW 15 km/h 15 km/h 70 % 0 mm 151.0 W/m2 BKN
12:10 -13.7 °C -16.6 °C 34520.3 hPa NW 23.8 km/h 23.8 km/h 70 % 0 mm 149.0 W/m2 BKN
12:15 -13.8 °C -16.8 °C 34520.3 hPa NNW 23.8 km/h 23.8 km/h 68 % 0 mm 135.0 W/m2 BKN
12:20 -13.8 °C -16.7 °C 34520.3 hPa NNW 17.9 km/h 17.9 km/h 69 % 0 mm 134.0 W/m2 BKN
12:25 -13.8 °C -16.6 °C 34510.1 hPa North 17.9 km/h 17.9 km/h 71 % 0 mm 148.0 W/m2 BKN
12:30 -13.9 °C -16.6 °C 34510.1 hPa North 18.2 km/h 18.2 km/h 72 % 0 mm 144.0 W/m2 BKN
12:35 -14 °C -16.6 °C 34510.1 hPa North 17.9 km/h 17.9 km/h 72 % 0 mm 137.0 W/m2 BKN
12:40 -14 °C -16.5 °C 34510.1 hPa North 11.9 km/h 11.9 km/h 73 % 0 mm 134.0 W/m2 BKN
12:45 -14 °C -16.5 °C 34510.1 hPa North 15 km/h 15 km/h 73 % 0 mm 120.0 W/m2 BKN
12:50 -14 °C -16.3 °C 34496.6 hPa North 7.7 km/h 7.7 km/h 75 % 0 mm 130.0 W/m2 BKN
12:55 -14 °C -16.3 °C 34496.6 hPa NNW 15.6 km/h 15.6 km/h 75 % 0 mm 111.0 W/m2 BKN
13:00 -14.1 °C -16.3 °C 34496.6 hPa NW 15 km/h 15 km/h 75 % 0 mm 111.0 W/m2 BKN
13:05 -14.1 °C -16.3 °C 34496.6 hPa NW 9 km/h   76 % 0 mm 120.0 W/m2 BKN
13:10 -14.1 °C -16.4 °C 34496.6 hPa Calm     75 % 0 mm 146.0 W/m2 BKN
13:16 -14.1 °C -16.2 °C 34486.4 hPa NNW 20.8 km/h 20.8 km/h 77 % 0 mm 193.0 W/m2 BKN
13:21 -14 °C -16.3 °C 34486.4 hPa NW 17.9 km/h 17.9 km/h 75 % 0 mm 156.0 W/m2 BKN
13:26 -14 °C -16.2 °C 34486.4 hPa NW 15 km/h 15 km/h 76 % 0 mm 109.0 W/m2 BKN
13:31 -14 °C -16.4 °C 34486.4 hPa WNW 15.6 km/h 15.6 km/h 74 % 0 mm 111.0 W/m2 BKN
13:36 -14 °C -16.4 °C 34486.4 hPa NW 20.8 km/h 20.8 km/h 74 % 0 mm 121.0 W/m2 BKN
13:41 -14.1 °C -16.6 °C 34476.3 hPa NW 20.9 km/h 20.9 km/h 73 % 0 mm 123.0 W/m2 BKN
13:46 -14.1 °C -16.6 °C 34476.3 hPa NW 26.9 km/h 26.9 km/h 73 % 0 mm 123.0 W/m2 BKN
13:51 -14.1 °C -16.6 °C 34476.3 hPa NW 29.8 km/h 29.8 km/h 73 % 0 mm 114.0 W/m2 BKN
13:56 -14.1 °C -16.4 °C 34476.3 hPa NW 32.8 km/h 32.8 km/h 74 % 0 mm 139.0 W/m2 BKN
14:01 -14.1 °C -16.4 °C 34476.3 hPa NW 28.5 km/h 28.5 km/h 74 % 0 mm 114.0 W/m2 BKN
14:06 -14.1 °C -16.4 °C 34476.3 hPa NW 29.8 km/h 29.8 km/h 74 % 0 mm 100.0 W/m2 BKN
14:11 -14.1 °C -16.4 °C 34476.3 hPa NW 29.8 km/h 29.8 km/h 74 % 0 mm 76.0 W/m2 BKN
14:16 -14.1 °C -16.4 °C 34462.7 hPa NW 23.8 km/h 23.8 km/h 74 % 0 mm 81.0 W/m2 BKN
14:21 -14.1 °C -16.4 °C 34462.7 hPa NW 23.8 km/h 23.8 km/h 74 % 0 mm 67.0 W/m2 BKN
14:26 -14 °C -16.3 °C 34462.7 hPa WNW 18.2 km/h 18.2 km/h 75 % 0 mm 74.0 W/m2 BKN
14:31 -14 °C -16.4 °C 34462.7 hPa WNW 26.9 km/h 26.9 km/h 74 % 0 mm 76.0 W/m2 BKN
14:36 -14 °C -16.3 °C 34462.7 hPa WNW 15 km/h 15 km/h 75 % 0 mm 88.0 W/m2 BKN
14:41 -13.9 °C -16.2 °C 34462.7 hPa Calm     75 % 0 mm 76.0 W/m2 BKN
14:46 -13.9 °C -16.2 °C 34462.7 hPa Calm     75 % 0 mm 70.0 W/m2 BKN
14:51 -13.9 °C -16.2 °C 34462.7 hPa West 15 km/h 15 km/h 75 % 0 mm 90.0 W/m2 BKN
14:56 -13.9 °C -16.2 °C 34462.7 hPa WNW 20.9 km/h 20.9 km/h 75 % 0 mm 90.0 W/m2 BKN
15:01 -13.8 °C -16.2 °C 34462.7 hPa WNW 28.5 km/h 28.5 km/h 75 % 0 mm 90.0 W/m2 BKN
15:06 -13.8 °C -16.1 °C 34452.6 hPa WNW 23.8 km/h 23.8 km/h 75 % 0 mm 102.0 W/m2 BKN
15:11 -13.8 °C -16.1 °C 34452.6 hPa WNW 11.9 km/h 11.9 km/h 75 % 0 mm 98.0 W/m2 BKN
15:16 -13.8 °C -16.1 °C 34452.6 hPa Calm     75 % 0 mm 81.0 W/m2 BKN
15:21 -13.7 °C -16.1 °C 34452.6 hPa WNW 26.9 km/h 26.9 km/h 75 % 0 mm 65.0 W/m2 BKN
15:26 -13.7 °C -16 °C 34462.7 hPa WNW 26.9 km/h 26.9 km/h 75 % 0 mm 53.0 W/m2 BKN
15:31 -13.7 °C -16.1 °C 34462.7 hPa Calm     74 % 0 mm 44.0 W/m2 BKN
15:36 -13.7 °C -16 °C 34462.7 hPa Calm     75 % 0 mm 51.0 W/m2 BKN
15:41 -13.7 °C -16.1 °C 34462.7 hPa Calm     74 % 0 mm 47.0 W/m2 BKN
15:46 -13.7 °C -16.1 °C 34462.7 hPa Calm     74 % 0 mm 40.0 W/m2 BKN
15:51 -13.6 °C -16 °C 34462.7 hPa Calm     74 % 0 mm 39.0 W/m2 BKN
15:56 -13.6 °C -15.9 °C 34462.7 hPa Calm     75 % 0 mm 37.0 W/m2 BKN
16:01 -13.6 °C -15.9 °C 34462.7 hPa Calm     75 % 0 mm 40.0 W/m2 BKN
16:06 -13.6 °C -15.9 °C 34462.7 hPa NW 15 km/h 15 km/h 75 % 0 mm 35.0 W/m2 BKN
16:11 -13.6 °C -15.9 °C 34476.3 hPa Calm     75 % 0 mm 33.0 W/m2 BKN
16:16 -13.6 °C -16 °C 34476.3 hPa Calm     74 % 0 mm 32.0 W/m2 BKN
16:21 -13.6 °C -16 °C 34462.7 hPa Calm     74 % 0 mm 33.0 W/m2 BKN
16:26 -13.6 °C -15.8 °C 34476.3 hPa Calm     76 % 0 mm 28.0 W/m2 BKN
16:31 -13.7 °C -15.7 °C 34476.3 hPa Calm     78 % 0 mm 30.0 W/m2 BKN
16:36 -13.7 °C -15.7 °C 34476.3 hPa Calm     78 % 0 mm 26.0 W/m2 SCT
16:41 -13.7 °C -15.8 °C 34476.3 hPa Calm     77 % 0 mm 19.0 W/m2 SCT
16:46 -13.7 °C -15.6 °C 34476.3 hPa Calm     79 % 0 mm 19.0 W/m2 FEW
16:51 -13.7 °C -15.5 °C 34476.3 hPa Calm     80 % 7.62 mm 19.0 W/m2 RA
16:56 -13.8 °C -15.6 °C 34476.3 hPa Calm     80 % 7.62 mm 18.0 W/m2 BKN
17:01 -13.8 °C -15.7 °C 34476.3 hPa Calm     80 % 7.62 mm 19.0 W/m2 CLR
17:06 -13.9 °C -15.6 °C 34476.3 hPa Calm     81 % 7.62 mm 18.0 W/m2 OVC
17:11 -13.9 °C -15.7 °C 34486.4 hPa Calm     80 % 7.62 mm 14.0 W/m2 OVC
17:16 -13.9 °C -15.5 °C 34476.3 hPa Calm     82 % 7.62 mm 14.0 W/m2 OVC
17:21 -13.9 °C -15.4 °C 34476.3 hPa Calm     83 % 7.62 mm 11.0 W/m2 OVC
17:26 -14 °C -15.6 °C 34476.3 hPa Calm     82 % 7.62 mm 11.0 W/m2 OVC
17:31 -14 °C -15.4 °C 34476.3 hPa Calm     83 % 7.62 mm 11.0 W/m2 OVC
17:36 -14.1 °C -15.4 °C 34476.3 hPa Calm     84 % 7.62 mm 9.0 W/m2 OVC
17:41 -14.1 °C -15.4 °C 34476.3 hPa Calm     85 % 7.62 mm 5.0 W/m2 OVC
17:46 -14.1 °C -15.4 °C 34476.3 hPa Calm     85 % 7.62 mm 0.0 W/m2 OVC
17:51 -14.1 °C -15.4 °C 34476.3 hPa Calm     85 % 0 mm 0.0 W/m2 OVC
17:56 -14.1 °C -15.4 °C 34476.3 hPa Calm     84 % 0 mm 0.0 W/m2 OVC
18:01 -14 °C -15.4 °C 34486.4 hPa Calm     84 % 0 mm 0.0 W/m2 OVC
18:06 -14 °C -15.4 °C 34486.4 hPa Calm     84 % 0 mm 0.0 W/m2 CLR
18:11 -14 °C -15.4 °C 34486.4 hPa Calm     84 % 0 mm 0.0 W/m2 CLR
18:16 -14 °C -15.4 °C 34486.4 hPa Calm     84 % 0 mm 0.0 W/m2 CLR
18:21 -14 °C -15.5 °C 34496.6 hPa Calm     83 % 0 mm 0.0 W/m2 CLR
18:26 -14 °C -15.5 °C 34486.4 hPa Calm     83 % 0 mm 0.0 W/m2 CLR
18:31 -14 °C -15.6 °C 34496.6 hPa Calm     82 % 0 mm 0.0 W/m2 CLR
18:36 -14 °C -15.4 °C 34496.6 hPa Calm     84 % 0 mm 0.0 W/m2 CLR
18:41 -14.1 °C -15.6 °C 34496.6 hPa Calm     83 % 7.62 mm 0.0 W/m2 RA
18:46 -14.1 °C -15.5 °C 34496.6 hPa Calm     84 % 7.62 mm 0.0 W/m2 CLR
18:51 -14.2 °C -15.6 °C 34496.6 hPa Calm     84 % 7.62 mm 0.0 W/m2 CLR
18:56 -14.2 °C -15.6 °C 34496.6 hPa Calm     84 % 7.62 mm 0.0 W/m2 CLR
19:01 -14.2 °C -15.5 °C 34496.6 hPa Calm     85 % 7.62 mm 0.0 W/m2 CLR
19:06 -14.3 °C -15.6 °C 34496.6 hPa Calm     85 % 7.62 mm 0.0 W/m2 CLR
19:11 -14.3 °C -15.4 °C 34496.6 hPa Calm     87 % 7.62 mm 0.0 W/m2 CLR
19:16 -14.4 °C -15.5 °C 34510.1 hPa Calm     87 % 7.62 mm 0.0 W/m2 CLR
19:21 -14.4 °C -15.5 °C 34510.1 hPa Calm     87 % 7.62 mm 0.0 W/m2 CLR
19:26 -14.3 °C -15.6 °C 34510.1 hPa Calm     86 % 12.7 mm 0.0 W/m2 RA
19:31 -14.3 °C -15.6 °C 34510.1 hPa Calm     86 % 12.7 mm 0.0 W/m2 CLR
19:36 -14.3 °C -15.5 °C 34510.1 hPa Calm     86 % 12.7 mm 0.0 W/m2 CLR
19:41 -14.4 °C -15.5 °C 34510.1 hPa Calm     87 % 7.62 mm 0.0 W/m2 CLR
19:46 -14.5 °C -15.5 °C 34510.1 hPa Calm     88 % 12.7 mm 0.0 W/m2 RA
19:51 -14.6 °C -15.5 °C 34510.1 hPa Calm     89 % 12.7 mm 0.0 W/m2 CLR
19:56 -14.6 °C -15.5 °C 34510.1 hPa Calm     89 % 12.7 mm 0.0 W/m2 CLR
20:01 -14.6 °C -15.4 °C 34510.1 hPa Calm     90 % 12.7 mm 0.0 W/m2 CLR
20:06 -14.7 °C -15.5 °C 34510.1 hPa Calm     90 % 12.7 mm 0.0 W/m2 CLR
20:12 -14.7 °C -15.5 °C 34510.1 hPa Calm     90 % 12.7 mm 0.0 W/m2 CLR
20:17 -14.7 °C -15.5 °C 34510.1 hPa Calm     90 % 12.7 mm 0.0 W/m2 CLR
20:22 -14.6 °C -15.5 °C 34510.1 hPa Calm     89 % 12.7 mm 0.0 W/m2 CLR
20:27 -14.6 °C -15.4 °C 34510.1 hPa Calm     89 % 7.62 mm 0.0 W/m2 CLR
20:32 -14.6 °C -15.5 °C 34510.1 hPa Calm     89 % 7.62 mm 0.0 W/m2 CLR
20:37 -14.6 °C -15.4 °C 34520.3 hPa Calm     90 % 7.62 mm 0.0 W/m2 CLR
20:42 -14.6 °C -15.4 °C 34520.3 hPa Calm     90 % 7.62 mm 0.0 W/m2 CLR
20:47 -14.6 °C -15.5 °C 34533.8 hPa Calm     89 % 0 mm 0.0 W/m2 CLR
20:52 -14.6 °C -15.5 °C 34533.8 hPa Calm     89 % 0 mm 0.0 W/m2 CLR
20:57 -14.6 °C -15.5 °C 34533.8 hPa Calm     89 % 0 mm 0.0 W/m2 CLR
21:02 -14.6 °C -15.5 °C 34533.8 hPa Calm     89 % 0 mm 0.0 W/m2 CLR
21:07 -14.6 °C -15.5 °C 34533.8 hPa Calm     89 % 7.62 mm 0.0 W/m2 RA
21:12 -14.6 °C -15.5 °C 34533.8 hPa Calm     89 % 12.7 mm 0.0 W/m2 RA
21:17 -14.6 °C -15.5 °C 34533.8 hPa Calm     89 % 12.7 mm 0.0 W/m2
21:22 -14.6 °C -15.5 °C 34533.8 hPa NW 18.2 km/h 18.2 km/h 89 % 12.7 mm 0.0 W/m2 RA
21:27 -14.6 °C -15.6 °C 34533.8 hPa WNW 17.9 km/h 17.9 km/h 88 % 12.7 mm 0.0 W/m2
21:32 -14.6 °C -15.6 °C 34533.8 hPa WNW 15 km/h 15 km/h 88 % 12.7 mm 0.0 W/m2 CLR
21:37 -14.6 °C -15.7 °C 34520.3 hPa WNW 15.6 km/h 15.6 km/h 87 % 12.7 mm 0.0 W/m2 CLR
21:42 -14.6 °C -15.7 °C 34520.3 hPa WNW 29.8 km/h 29.8 km/h 87 % 12.7 mm 0.0 W/m2 CLR
21:47 -14.6 °C -15.7 °C 34520.3 hPa WNW 29.8 km/h 29.8 km/h 86 % 12.7 mm 0.0 W/m2 CLR
21:52 -14.5 °C -15.7 °C 34520.3 hPa WNW 17.9 km/h 17.9 km/h 86 % 12.7 mm 0.0 W/m2 CLR
21:57 -14.5 °C -15.7 °C 34533.8 hPa WNW 17.9 km/h 17.9 km/h 86 % 12.7 mm 0.0 W/m2 CLR
22:02 -14.5 °C -15.7 °C 34533.8 hPa WNW 15 km/h 15 km/h 86 % 12.7 mm 0.0 W/m2 CLR
22:07 -14.5 °C -15.7 °C 34533.8 hPa WNW 10.3 km/h 10.3 km/h 86 % 12.7 mm 0.0 W/m2 CLR
22:12 -14.5 °C -15.7 °C 34533.8 hPa Calm     86 % 12.7 mm 0.0 W/m2 RA
22:17 -14.5 °C -15.7 °C 34533.8 hPa West 17.9 km/h 17.9 km/h 86 % 12.7 mm 0.0 W/m2 CLR
22:22 -14.5 °C -15.7 °C 34544 hPa WNW 15.6 km/h 15.6 km/h 86 % 7.62 mm 0.0 W/m2 CLR
22:27 -14.5 °C -15.7 °C 34533.8 hPa WNW 15 km/h 15 km/h 86 % 7.62 mm 0.0 W/m2 CLR
22:32 -14.5 °C -15.7 °C 34533.8 hPa WNW 11.9 km/h 11.9 km/h 86 % 7.62 mm 0.0 W/m2 CLR
22:37 -14.6 °C -15.7 °C 34533.8 hPa WNW 20.9 km/h 20.9 km/h 86 % 7.62 mm 0.0 W/m2 CLR
22:42 -14.5 °C -15.7 °C 34544 hPa WNW 17.9 km/h 17.9 km/h 86 % 12.7 mm 0.0 W/m2 RA
22:47 -14.6 °C -15.7 °C 34544 hPa WNW 15.6 km/h 15.6 km/h 87 % 12.7 mm 0.0 W/m2 CLR
22:52 -14.6 °C -15.7 °C 34533.8 hPa WNW 20.9 km/h 20.9 km/h 87 % 12.7 mm 0.0 W/m2 CLR
22:57 -14.6 °C -15.7 °C 34544 hPa WNW 23.8 km/h 23.8 km/h 87 % 12.7 mm 0.0 W/m2 CLR
23:02 -14.6 °C -15.7 °C 34533.8 hPa WNW 23.3 km/h 23.3 km/h 87 % 12.7 mm 0.0 W/m2 CLR
23:07 -14.6 °C -15.8 °C 34544 hPa WNW 26.9 km/h 26.9 km/h 86 % 12.7 mm 0.0 W/m2 CLR
23:12 -14.6 °C -15.8 °C 34544 hPa WNW 23.8 km/h 23.8 km/h 86 % 12.7 mm 0.0 W/m2 CLR
23:17 -14.6 °C -15.7 °C 34544 hPa WNW 23.8 km/h 23.8 km/h 87 % 12.7 mm 0.0 W/m2 CLR
23:22 -14.6 °C -15.8 °C 34544 hPa WNW 20.9 km/h 20.9 km/h 86 % 12.7 mm 0.0 W/m2 CLR
23:27 -14.6 °C -15.7 °C 34533.8 hPa WNW 31.1 km/h 31.1 km/h 86 % 12.7 mm 0.0 W/m2 CLR
23:32 -14.6 °C -15.8 °C 34533.8 hPa WNW 29.8 km/h 29.8 km/h 85 % 12.7 mm 0.0 W/m2 CLR
23:37 -14.5 °C -15.8 °C 34544 hPa WNW 32.8 km/h 32.8 km/h 85 % 12.7 mm 0.0 W/m2 CLR
23:42 -14.5 °C -15.8 °C 34544 hPa WNW 29.8 km/h 29.8 km/h 85 % 0 mm 0.0 W/m2 CLR
23:47 -14.6 °C -15.8 °C 34533.8 hPa WNW 38.8 km/h 38.8 km/h 85 % 0 mm 0.0 W/m2 CLR
23:52 -14.6 °C -15.8 °C 34533.8 hPa WNW 38.8 km/h 38.8 km/h 85 % 0 mm 0.0 W/m2 CLR
23:57 -14.6 °C -15.8 °C 34533.8 hPa WNW 35.7 km/h 35.7 km/h 85 % 0 mm 0.0 W/m2 CLR
Lo Temps de Massalio
Compliments of Weather Underground - 1.25 mb